Time;durP1;ratioP1;P1;durP2;ratioP2;P2;SDS_P1;SDS_P2;PMS_P1;PMS_P2;Temp;Humidity;BMP_temperature;BMP_pressure;BME280_temperature;BME280_humidity;BME280_pressure;Samples;Min_cycle;Max_cycle;Signal;HPM_P1;HPM_P2
2022/03/06 00:00:46;;;;;;;5.30;2.65;;;7.60;1.00;;;;;;5044218;28;20033;-71
2022/03/06 00:03:12;;;;;;;3.80;2.83;;;7.60;1.00;;;;;;5042942;28;20561;-71
2022/03/06 00:05:38;;;;;;;5.05;3.17;;;7.50;1.00;;;;;;5042420;28;20036;-71
2022/03/06 00:08:05;;;;;;;3.67;2.63;;;7.60;1.00;;;;;;5043877;28;20086;-71
2022/03/06 00:10:31;;;;;;;2.95;2.50;;;7.60;1.00;;;;;;5043285;28;20095;-71
2022/03/06 00:12:57;;;;;;;3.08;2.60;;;7.60;1.00;;;;;;5042578;28;20542;-71
2022/03/06 00:15:25;;;;;;;2.63;2.38;;;7.60;1.00;;;;;;5044154;28;20075;-71
2022/03/06 00:17:52;;;;;;;3.92;2.55;;;7.60;1.00;;;;;;5042084;28;20045;-71
2022/03/06 00:20:17;;;;;;;3.60;2.25;;;7.50;1.00;;;;;;5043170;28;20063;-71
2022/03/06 00:22:43;;;;;;;2.03;1.83;;;7.60;1.00;;;;;;5052780;28;20083;-71
2022/03/06 00:25:09;;;;;;;2.72;2.20;;;7.60;1.00;;;;;;5054545;28;20037;-71
2022/03/06 00:27:35;;;;;;;2.70;2.10;;;7.60;1.00;;;;;;5054255;28;20394;-71
2022/03/06 00:30:02;;;;;;;3.00;2.15;;;7.50;1.00;;;;;;5054223;28;20039;-72
2022/03/06 00:32:28;;;;;;;2.00;1.77;;;7.50;1.00;;;;;;5050761;28;20051;-72
2022/03/06 00:34:54;;;;;;;2.90;2.60;;;7.50;1.00;;;;;;5043649;28;20044;-72
2022/03/06 00:37:20;;;;;;;2.15;1.95;;;7.50;1.00;;;;;;5042719;28;20037;-71
2022/03/06 00:39:46;;;;;;;1.90;1.75;;;7.40;1.00;;;;;;5041651;28;20029;-71
2022/03/06 00:42:12;;;;;;;3.00;2.40;;;7.40;1.00;;;;;;5043889;28;20068;-71
2022/03/06 00:44:38;;;;;;;2.58;2.30;;;7.30;1.00;;;;;;5042559;28;20136;-71
2022/03/06 00:47:04;;;;;;;3.60;3.13;;;7.30;1.00;;;;;;5043853;28;20155;-71
2022/03/06 00:49:31;;;;;;;2.10;1.90;;;7.30;1.00;;;;;;5050096;28;20103;-71
2022/03/06 00:51:58;;;;;;;2.63;2.08;;;7.30;1.00;;;;;;5049119;28;20048;-71
2022/03/06 00:54:24;;;;;;;3.38;2.50;;;7.20;1.00;;;;;;5048390;28;20032;-72
2022/03/06 00:56:50;;;;;;;4.03;2.15;;;7.20;1.00;;;;;;5050331;28;20380;-71
2022/03/06 00:59:16;;;;;;;2.25;1.98;;;7.20;1.00;;;;;;5048473;28;20121;-71
2022/03/06 01:01:42;;;;;;;2.72;2.28;;;7.20;1.00;;;;;;5048634;28;20091;-71
2022/03/06 01:04:08;;;;;;;2.55;2.00;;;7.20;1.00;;;;;;5048531;28;20083;-71
2022/03/06 01:06:34;;;;;;;2.42;2.00;;;7.20;1.00;;;;;;5040692;28;20049;-71
2022/03/06 01:08:59;;;;;;;3.03;2.55;;;7.20;1.00;;;;;;5040585;28;20033;-71
2022/03/06 01:11:25;;;;;;;2.72;2.17;;;7.20;1.00;;;;;;5039327;28;20045;-71
2022/03/06 01:13:52;;;;;;;2.85;2.17;;;7.20;1.00;;;;;;5058761;28;20175;-71
2022/03/06 01:16:18;;;;;;;4.35;2.63;;;7.30;1.00;;;;;;5060759;28;20040;-71
2022/03/06 01:18:43;;;;;;;3.35;2.40;;;7.30;1.00;;;;;;5060516;28;20124;-71
2022/03/06 01:21:10;;;;;;;3.28;2.35;;;7.20;1.00;;;;;;5059076;28;20543;-71
2022/03/06 01:23:36;;;;;;;2.83;2.15;;;7.20;1.00;;;;;;5058055;28;20045;-71
2022/03/06 01:26:03;;;;;;;2.60;2.05;;;7.20;1.00;;;;;;5058894;28;20044;-71
2022/03/06 01:28:29;;;;;;;2.90;2.00;;;7.30;1.00;;;;;;5058996;28;20037;-71
2022/03/06 01:30:54;;;;;;;2.92;1.70;;;7.20;1.00;;;;;;5058581;28;20561;-71
2022/03/06 01:33:20;;;;;;;2.25;1.83;;;7.10;1.00;;;;;;5058154;28;20084;-71
2022/03/06 01:35:46;;;;;;;1.95;1.75;;;7.00;1.00;;;;;;5058667;28;20041;-71
2022/03/06 01:38:12;;;;;;;2.95;2.10;;;7.10;1.00;;;;;;5059137;28;20052;-71
2022/03/06 01:40:38;;;;;;;3.50;1.88;;;7.00;1.00;;;;;;5059156;28;20112;-71
2022/03/06 01:43:04;;;;;;;2.65;1.83;;;7.10;1.00;;;;;;5059087;28;20049;-71
2022/03/06 01:45:30;;;;;;;2.38;1.70;;;7.00;1.00;;;;;;5059912;28;20036;-71
2022/03/06 01:47:56;;;;;;;1.98;1.70;;;7.00;1.00;;;;;;5060211;28;20102;-71
2022/03/06 01:50:27;;;;;;;3.55;1.98;;;7.00;1.00;;;;;;5061021;28;20124;-71
2022/03/06 01:52:53;;;;;;;;;;;7.10;1.00;;;;;;5060854;28;20041;-71
2022/03/06 01:55:22;;;;;;;3.38;2.05;;;7.10;1.00;;;;;;5060328;28;19913;-71
2022/03/06 01:57:48;;;;;;;2.15;1.95;;;7.10;1.00;;;;;;5060632;28;20033;-71
2022/03/06 02:00:21;;;;;;;2.83;2.20;;;7.10;1.00;;;;;;5056192;28;20560;-71
2022/03/06 02:02:47;;;;;;;2.45;2.25;;;7.10;1.00;;;;;;5056822;28;20048;-71
2022/03/06 02:05:13;;;;;;;4.40;2.65;;;7.10;1.00;;;;;;5057138;28;20433;-71
2022/03/06 02:07:39;;;;;;;2.88;2.58;;;7.10;1.00;;;;;;5057139;28;20047;-71
2022/03/06 02:10:07;;;;;;;2.25;1.95;;;7.10;1.00;;;;;;5056724;28;20041;-71
2022/03/06 02:12:33;;;;;;;3.10;2.47;;;7.20;1.00;;;;;;5057106;28;20049;-71
2022/03/06 02:15:02;;;;;;;3.75;2.47;;;7.20;1.00;;;;;;5056957;28;20037;-71
2022/03/06 02:17:28;;;;;;;2.55;2.20;;;7.20;1.00;;;;;;5057052;28;20083;-71
2022/03/06 02:20:02;;;;;;;2.63;2.20;;;7.10;1.00;;;;;;5056864;28;20040;-71
2022/03/06 02:22:32;;;;;;;2.17;1.80;;;7.10;1.00;;;;;;5056585;28;20037;-71
2022/03/06 02:25:00;;;;;;;2.70;2.40;;;7.00;1.00;;;;;;5056834;28;20044;-71
2022/03/06 02:27:26;;;;;;;3.85;2.60;;;7.10;1.00;;;;;;5056712;28;20041;-71
2022/03/06 02:29:53;;;;;;;4.03;2.22;;;7.10;1.00;;;;;;5056682;28;20048;-71
2022/03/06 02:32:21;;;;;;;3.28;2.47;;;7.10;1.00;;;;;;5056532;28;20127;-71
2022/03/06 02:34:50;;;;;;;3.70;2.20;;;7.00;1.00;;;;;;5056805;28;20033;-71
2022/03/06 02:37:19;;;;;;;2.78;2.42;;;7.00;1.00;;;;;;5056845;28;20037;-71
2022/03/06 02:39:46;;;;;;;2.60;2.00;;;6.90;1.00;;;;;;5056719;28;20033;-71
2022/03/06 02:42:27;;;;;;;2.95;2.40;;;6.90;1.00;;;;;;5056774;28;20041;-71
2022/03/06 02:44:54;;;;;;;2.75;2.38;;;6.90;1.00;;;;;;5057024;28;20041;-71
2022/03/06 02:47:20;;;;;;;2.95;2.65;;;6.90;1.00;;;;;;5056592;28;20048;-71
2022/03/06 02:49:46;;;;;;;4.68;2.78;;;7.00;1.00;;;;;;5056337;28;20387;-71
2022/03/06 02:52:12;;;;;;;3.55;2.92;;;7.00;1.00;;;;;;5056601;28;20044;-71
2022/03/06 02:54:38;;;;;;;3.58;2.70;;;7.10;1.00;;;;;;5056550;28;20037;-71
2022/03/06 02:57:05;;;;;;;5.22;3.22;;;7.20;1.00;;;;;;5056436;28;20068;-71
2022/03/06 02:59:31;;;;;;;4.57;3.40;;;7.20;1.00;;;;;;5056651;28;20040;-71
2022/03/06 03:01:57;;;;;;;3.90;2.75;;;7.10;1.00;;;;;;5056382;28;20045;-71
2022/03/06 03:04:22;;;;;;;3.20;2.60;;;7.10;1.00;;;;;;5056272;28;20491;-71
2022/03/06 03:06:52;;;;;;;3.03;2.28;;;7.00;1.00;;;;;;5056275;28;20090;-71
2022/03/06 03:09:20;;;;;;;3.20;2.35;;;7.10;1.00;;;;;;5056182;28;20029;-71
2022/03/06 03:11:47;;;;;;;4.25;2.95;;;7.00;1.00;;;;;;5056157;28;20095;-71
2022/03/06 03:14:13;;;;;;;5.15;3.38;;;7.10;1.00;;;;;;5056144;28;20080;-71
2022/03/06 03:16:39;;;;;;;3.97;2.70;;;7.10;1.00;;;;;;5055944;28;20565;-71
2022/03/06 03:19:05;;;;;;;4.45;2.78;;;7.00;1.00;;;;;;5055760;28;20120;-71
2022/03/06 03:21:32;;;;;;;6.03;3.55;;;7.10;1.00;;;;;;5056559;28;20075;-72
2022/03/06 03:23:58;;;;;;;3.72;2.65;;;7.20;1.00;;;;;;5055892;28;20044;-72
2022/03/06 03:26:24;;;;;;;4.68;3.33;;;7.10;1.00;;;;;;5056383;28;20123;-72
2022/03/06 03:28:50;;;;;;;6.03;3.63;;;7.10;1.00;;;;;;5055858;28;20147;-71
2022/03/06 03:31:17;;;;;;;4.25;3.10;;;7.30;1.00;;;;;;5056118;28;20475;-72
2022/03/06 03:33:42;;;;;;;4.78;3.40;;;7.30;1.00;;;;;;5054847;28;20049;-71
2022/03/06 03:36:09;;;;;;;4.03;3.20;;;7.20;1.00;;;;;;5055157;28;20037;-71
2022/03/06 03:38:35;;;;;;;4.15;2.90;;;7.30;1.00;;;;;;5055388;28;20040;-71
2022/03/06 03:41:01;;;;;;;3.85;3.22;;;7.30;1.00;;;;;;5055324;28;20037;-71
2022/03/06 03:43:28;;;;;;;3.80;3.03;;;7.30;1.00;;;;;;5054587;28;20052;-71
2022/03/06 03:45:57;;;;;;;3.78;3.10;;;7.10;1.00;;;;;;5054945;28;20407;-71
2022/03/06 03:48:27;;;;;;;3.08;2.78;;;7.20;1.00;;;;;;5055004;28;20130;-71
2022/03/06 03:50:54;;;;;;;2.97;2.55;;;7.20;1.00;;;;;;5055116;28;20072;-71
2022/03/06 03:53:20;;;;;;;3.65;3.05;;;7.20;1.00;;;;;;5055247;28;20041;-71
2022/03/06 03:55:46;;;;;;;3.85;3.22;;;7.20;1.00;;;;;;5055028;28;20120;-71
2022/03/06 03:58:12;;;;;;;4.68;3.33;;;7.10;1.00;;;;;;5054981;28;20124;-71
2022/03/06 04:00:38;;;;;;;3.80;3.03;;;7.10;1.00;;;;;;5054916;28;20064;-71
2022/03/06 04:03:04;;;;;;;3.83;2.53;;;7.10;1.00;;;;;;5054758;28;20045;-71
2022/03/06 04:05:30;;;;;;;3.97;3.03;;;7.20;1.00;;;;;;5054965;28;20480;-71
2022/03/06 04:07:56;;;;;;;3.42;2.55;;;7.10;1.00;;;;;;5054850;28;20099;-71
2022/03/06 04:10:22;;;;;;;3.30;2.50;;;7.10;1.00;;;;;;5054852;28;20083;-71
2022/03/06 04:12:51;;;;;;;4.00;3.15;;;7.10;1.00;;;;;;5054799;28;20076;-71
2022/03/06 04:15:17;;;;;;;4.00;3.33;;;7.10;1.00;;;;;;5055259;28;20044;-71
2022/03/06 04:17:42;;;;;;;3.55;2.53;;;7.10;1.00;;;;;;5054147;28;20448;-71
2022/03/06 04:20:09;;;;;;;4.32;3.05;;;7.10;1.00;;;;;;5054617;28;20047;-71
2022/03/06 04:22:34;;;;;;;4.97;2.85;;;7.10;1.00;;;;;;5054116;28;20036;-71
2022/03/06 04:25:00;;;;;;;4.25;3.40;;;7.10;1.00;;;;;;5054515;28;20506;-71
2022/03/06 04:27:26;;;;;;;5.07;3.92;;;7.10;1.00;;;;;;5054579;28;20100;-71
2022/03/06 04:29:52;;;;;;;5.35;3.33;;;7.10;1.00;;;;;;5054445;28;20060;-71
2022/03/06 04:35:08;;;;;;;3.55;2.80;;;7.20;1.00;;;;;;4997390;23;20590;-71
2022/03/06 04:37:34;;;;;;;3.20;2.47;;;7.20;1.00;;;;;;4993887;28;20050;-71
2022/03/06 04:40:00;;;;;;;3.42;2.63;;;7.20;1.00;;;;;;4993995;28;20121;-71
2022/03/06 04:42:26;;;;;;;6.80;3.17;;;7.10;1.00;;;;;;4993447;28;20038;-71
2022/03/06 04:44:52;;;;;;;5.70;2.97;;;7.10;1.00;;;;;;4993958;28;20054;-72
2022/03/06 04:49:53;;;;;;;3.42;2.75;;;7.10;1.00;;;;;;5000701;23;19921;-71
2022/03/06 04:52:19;;;;;;;4.55;3.50;;;7.10;1.00;;;;;;5013338;28;20049;-71
2022/03/06 04:54:45;;;;;;;3.97;3.03;;;7.10;1.00;;;;;;5013432;28;20126;-71
2022/03/06 04:57:11;;;;;;;5.22;3.03;;;7.20;1.00;;;;;;5013191;28;20423;-71
2022/03/06 04:59:37;;;;;;;5.00;3.40;;;7.20;1.00;;;;;;5013012;28;20088;-71
2022/03/06 05:02:03;;;;;;;6.25;3.47;;;7.10;1.00;;;;;;5013415;28;20038;-71
2022/03/06 05:04:29;;;;;;;5.25;3.63;;;7.10;1.00;;;;;;5013176;28;20046;-71
2022/03/06 05:06:55;;;;;;;6.25;3.55;;;7.10;1.00;;;;;;5013379;28;20132;-71
2022/03/06 05:09:21;;;;;;;5.85;3.65;;;7.10;1.00;;;;;;5013479;28;20037;-71
2022/03/06 05:11:46;;;;;;;5.45;3.95;;;7.10;1.00;;;;;;5013038;28;20520;-71
2022/03/06 05:14:12;;;;;;;6.40;4.40;;;7.10;1.00;;;;;;5013274;28;20042;-71
2022/03/06 05:16:38;;;;;;;7.53;4.70;;;7.00;1.00;;;;;;5013010;28;20111;-71
2022/03/06 05:19:04;;;;;;;5.00;3.72;;;7.10;1.00;;;;;;5013183;28;20042;-71
2022/03/06 05:21:30;;;;;;;6.50;4.03;;;7.00;1.00;;;;;;5012926;28;20037;-71
2022/03/06 05:23:55;;;;;;;6.68;4.07;;;7.10;1.00;;;;;;5013121;28;20045;-71
2022/03/06 05:26:21;;;;;;;6.22;4.60;;;7.10;1.00;;;;;;5013131;28;20053;-71
2022/03/06 05:28:47;;;;;;;5.45;4.50;;;7.10;1.00;;;;;;5013005;28;20503;-71
2022/03/06 05:31:13;;;;;;;7.88;4.93;;;7.10;1.00;;;;;;5013160;28;20034;-71
2022/03/06 05:33:39;;;;;;;10.40;6.10;;;7.10;1.00;;;;;;5013181;28;20045;-71
2022/03/06 05:36:05;;;;;;;12.82;6.47;;;7.10;1.00;;;;;;5016772;28;20096;-71
2022/03/06 05:38:31;;;;;;;8.30;6.53;;;7.10;1.00;;;;;;5016921;28;20125;-71
2022/03/06 05:40:57;;;;;;;9.35;6.55;;;7.00;1.00;;;;;;5016750;28;20129;-71
2022/03/06 05:43:23;;;;;;;10.07;7.50;;;7.00;1.00;;;;;;5016234;28;20068;-71
2022/03/06 05:45:52;;;;;;;9.55;6.30;;;7.00;1.00;;;;;;5016378;28;20061;-71
2022/03/06 05:48:21;;;;;;;9.63;7.05;;;7.10;1.00;;;;;;5016203;28;20049;-71
2022/03/06 05:50:48;;;;;;;8.75;6.88;;;7.00;1.00;;;;;;5016554;28;20038;-71
2022/03/06 05:53:14;;;;;;;11.82;7.88;;;7.10;1.00;;;;;;5016426;28;20049;-71
2022/03/06 05:55:40;;;;;;;11.98;8.23;;;7.00;1.00;;;;;;5016165;28;20061;-71
2022/03/06 05:58:06;;;;;;;8.27;7.28;;;6.90;1.00;;;;;;5016302;28;20042;-71
2022/03/06 06:00:32;;;;;;;10.35;7.57;;;7.00;1.00;;;;;;5016087;28;20037;-71
2022/03/06 06:02:58;;;;;;;12.48;7.68;;;6.90;1.00;;;;;;5015765;28;20160;-71
2022/03/06 06:05:25;;;;;;;9.65;7.47;;;6.90;1.00;;;;;;5015907;28;20054;-71
2022/03/06 06:07:51;;;;;;;11.63;7.85;;;6.90;1.00;;;;;;5016370;28;20096;-71
2022/03/06 06:10:18;;;;;;;9.02;7.95;;;6.90;1.00;;;;;;5015962;28;20038;-71
2022/03/06 06:12:44;;;;;;;10.15;8.35;;;6.80;1.00;;;;;;5015838;28;20065;-71
2022/03/06 06:15:11;;;;;;;9.93;7.97;;;6.90;1.00;;;;;;5016125;28;20038;-71
2022/03/06 06:17:37;;;;;;;11.20;8.27;;;7.00;1.00;;;;;;5015687;28;20562;-71
2022/03/06 06:20:04;;;;;;;9.95;8.45;;;7.00;1.00;;;;;;5015718;28;20046;-71
2022/03/06 06:22:31;;;;;;;10.30;8.27;;;7.00;1.00;;;;;;5015519;28;20116;-71
2022/03/06 06:25:00;;;;;;;10.30;7.93;;;6.90;1.00;;;;;;5015895;28;20690;-71
2022/03/06 06:27:27;;;;;;;12.13;7.82;;;6.90;1.00;;;;;;5015556;28;20038;-71
2022/03/06 06:29:53;;;;;;;10.18;7.47;;;6.80;1.00;;;;;;5015614;28;20076;-71
2022/03/06 06:32:19;;;;;;;10.13;7.68;;;6.80;1.00;;;;;;5015631;28;20045;-71
2022/03/06 06:34:46;;;;;;;10.90;7.85;;;6.90;1.00;;;;;;5015563;28;20073;-71
2022/03/06 06:37:13;;;;;;;10.27;7.30;;;6.90;1.00;;;;;;5015720;28;20515;-71
2022/03/06 06:39:39;;;;;;;9.65;7.03;;;6.90;1.00;;;;;;5015741;28;20210;-71
2022/03/06 06:42:05;;;;;;;9.02;7.07;;;6.90;1.00;;;;;;5015688;28;20037;-71
2022/03/06 06:44:32;;;;;;;10.00;6.65;;;7.00;1.00;;;;;;5014706;28;20534;-71
2022/03/06 06:46:58;;;;;;;8.18;6.70;;;7.00;1.00;;;;;;5015540;28;20037;-71
2022/03/06 06:49:24;;;;;;;10.00;7.07;;;7.00;1.00;;;;;;5015584;28;20065;-71
2022/03/06 06:51:50;;;;;;;8.18;6.30;;;7.00;1.00;;;;;;5015425;28;20045;-71
2022/03/06 06:54:15;;;;;;;9.27;6.45;;;7.00;1.00;;;;;;5015362;28;20040;-71
2022/03/06 06:56:42;;;;;;;6.85;5.97;;;7.00;1.00;;;;;;5015331;28;20042;-71
2022/03/06 06:59:09;;;;;;;9.68;6.35;;;7.10;1.00;;;;;;5015487;28;20041;-71
2022/03/06 07:01:34;;;;;;;6.68;5.95;;;7.10;1.00;;;;;;5015133;28;20034;-71
2022/03/06 07:04:00;;;;;;;9.30;6.00;;;7.20;1.00;;;;;;5014941;28;20046;-71
2022/03/06 07:06:26;;;;;;;7.05;6.05;;;7.20;1.00;;;;;;5014836;28;20042;-71
2022/03/06 07:08:52;;;;;;;8.60;5.80;;;7.20;1.00;;;;;;5014976;28;20034;-71
2022/03/06 07:11:18;;;;;;;7.93;5.43;;;7.10;1.00;;;;;;5014743;28;20046;-71
2022/03/06 07:13:43;;;;;;;7.13;5.72;;;7.20;1.00;;;;;;5014705;28;20404;-71
2022/03/06 07:16:09;;;;;;;8.43;5.53;;;7.20;1.00;;;;;;5014883;28;20480;-71
2022/03/06 07:18:35;;;;;;;6.95;5.20;;;7.20;1.00;;;;;;5014779;28;20071;-71
2022/03/06 07:21:02;;;;;;;7.45;5.63;;;7.20;1.00;;;;;;5014855;28;20128;-71
2022/03/06 07:23:30;;;;;;;6.65;5.70;;;7.30;1.00;;;;;;5014459;28;20396;-71
2022/03/06 07:25:56;;;;;;;8.60;6.38;;;7.10;1.00;;;;;;5014442;28;20087;-71
2022/03/06 07:28:22;;;;;;;8.07;5.85;;;7.20;1.00;;;;;;5005762;28;20146;-71
2022/03/06 07:30:48;;;;;;;9.55;6.53;;;7.20;1.00;;;;;;4979268;28;20118;-71
2022/03/06 07:33:14;;;;;;;7.70;5.88;;;7.30;1.00;;;;;;4984839;28;20045;-71
2022/03/06 07:35:40;;;;;;;7.35;6.53;;;7.30;1.00;;;;;;4994345;28;20058;-71
2022/03/06 07:38:06;;;;;;;12.02;7.95;;;7.30;1.00;;;;;;4994871;28;20038;-71
2022/03/06 07:40:32;;;;;;;10.00;6.85;;;7.20;1.00;;;;;;4994892;28;20064;-71
2022/03/06 07:42:58;;;;;;;10.25;7.70;;;7.30;1.00;;;;;;4994796;28;20042;-71
2022/03/06 07:45:24;;;;;;;9.48;7.60;;;7.30;1.00;;;;;;4977304;28;20691;-71
2022/03/06 07:47:49;;;;;;;8.13;7.07;;;7.40;1.00;;;;;;4994523;28;20046;-71
2022/03/06 07:50:16;;;;;;;8.98;7.72;;;7.30;1.00;;;;;;4994936;28;20496;-71
2022/03/06 07:52:42;;;;;;;12.27;8.75;;;7.40;1.00;;;;;;4977190;28;20129;-71
2022/03/06 07:55:09;;;;;;;11.32;8.30;;;7.30;1.00;;;;;;4989178;28;20065;-71
2022/03/06 07:57:35;;;;;;;13.07;9.00;;;7.40;1.00;;;;;;4982917;28;20041;-71
2022/03/06 08:00:05;;;;;;;11.65;8.63;;;7.30;1.00;;;;;;4994859;28;20042;-72
2022/03/06 08:02:31;;;;;;;14.60;11.13;;;7.40;1.00;;;;;;4989974;28;20045;-73
2022/03/06 08:04:57;;;;;;;11.65;8.98;;;7.40;1.00;;;;;;4993337;28;20692;-72
2022/03/06 08:07:23;;;;;;;13.60;9.30;;;7.40;1.00;;;;;;4994214;28;20531;-73
2022/03/06 08:09:49;;;;;;;10.38;7.97;;;7.50;1.00;;;;;;4994781;28;20046;-73
2022/03/06 08:12:15;;;;;;;12.43;9.60;;;7.40;1.00;;;;;;4993687;28;20042;-74
2022/03/06 08:14:41;;;;;;;10.00;7.55;;;7.50;1.00;;;;;;4993108;28;20496;-71
2022/03/06 08:17:07;;;;;;;10.73;8.75;;;7.40;1.00;;;;;;4993593;28;20042;-71
2022/03/06 08:19:32;;;;;;;11.18;8.57;;;7.50;1.00;;;;;;4993975;28;20093;-71
2022/03/06 08:21:58;;;;;;;12.65;9.45;;;7.50;1.00;;;;;;4994237;28;20078;-71
2022/03/06 08:24:24;;;;;;;11.40;8.90;;;7.60;1.00;;;;;;4994402;28;20432;-71
2022/03/06 08:26:50;;;;;;;12.52;8.88;;;7.50;1.00;;;;;;4994183;28;20098;-71
2022/03/06 08:29:16;;;;;;;13.13;10.20;;;7.50;1.00;;;;;;4994168;28;20046;-71
2022/03/06 08:31:42;;;;;;;17.13;10.38;;;7.50;1.00;;;;;;4994052;28;20045;-71
2022/03/06 08:34:07;;;;;;;12.73;10.70;;;7.50;1.00;;;;;;4993974;28;20057;-71
2022/03/06 08:36:34;;;;;;;14.07;9.60;;;7.60;1.00;;;;;;4994309;28;20050;-71
2022/03/06 08:39:00;;;;;;;11.27;8.70;;;7.70;1.00;;;;;;4977022;28;20467;-71
2022/03/06 08:41:26;;;;;;;12.50;9.52;;;7.80;1.00;;;;;;4991928;28;20045;-71
2022/03/06 08:43:51;;;;;;;11.07;9.40;;;7.80;1.00;;;;;;4993465;28;20552;-71
2022/03/06 08:46:17;;;;;;;14.85;9.80;;;7.80;1.00;;;;;;4991942;28;20050;-71
2022/03/06 08:48:43;;;;;;;12.63;8.95;;;7.80;1.00;;;;;;4993628;28;20141;-72
2022/03/06 08:51:09;;;;;;;16.90;13.25;;;7.90;1.00;;;;;;4993478;28;20416;-73
2022/03/06 08:53:35;;;;;;;14.10;9.65;;;7.80;1.00;;;;;;4992905;28;20050;-71
2022/03/06 08:56:01;;;;;;;16.48;12.27;;;7.80;1.00;;;;;;4994073;28;20038;-71
2022/03/06 08:58:27;;;;;;;12.20;9.68;;;7.80;1.00;;;;;;4992488;28;20038;-71
2022/03/06 09:00:53;;;;;;;16.40;10.88;;;7.90;1.00;;;;;;4992239;28;20068;-71
2022/03/06 09:03:19;;;;;;;14.00;9.52;;;8.00;1.00;;;;;;4991942;28;20100;-71
2022/03/06 09:05:45;;;;;;;12.50;9.63;;;7.90;1.00;;;;;;4992996;28;20038;-73
2022/03/06 09:08:11;;;;;;;15.27;11.38;;;7.80;1.00;;;;;;4992361;28;20046;-71
2022/03/06 09:10:38;;;;;;;11.63;9.85;;;7.90;1.00;;;;;;4990381;28;20050;-74
2022/03/06 09:13:05;;;;;;;14.32;10.18;;;7.80;1.00;;;;;;4990797;28;20046;-71
2022/03/06 09:15:32;;;;;;;13.98;9.70;;;7.90;1.00;;;;;;4997670;28;20489;-71
2022/03/06 09:17:58;;;;;;;11.27;9.38;;;7.90;1.00;;;;;;4997884;28;20132;-71
2022/03/06 09:20:25;;;;;;;14.70;10.75;;;7.90;1.00;;;;;;4997773;28;20040;-72
2022/03/06 09:22:52;;;;;;;14.20;10.15;;;7.90;1.00;;;;;;4997721;28;20484;-72
2022/03/06 09:25:18;;;;;;;12.23;9.45;;;8.20;1.00;;;;;;4997480;28;20358;-72
2022/03/06 09:27:44;;;;;;;13.10;9.10;;;8.30;1.00;;;;;;4997797;28;20042;-72
2022/03/06 09:30:11;;;;;;;21.95;13.55;;;8.20;1.00;;;;;;4997319;28;20484;-72
2022/03/06 09:32:37;;;;;;;13.18;9.82;;;8.30;1.00;;;;;;4997432;28;20117;-72
2022/03/06 09:35:04;;;;;;;15.65;11.18;;;8.10;1.00;;;;;;4997488;28;20073;-72
2022/03/06 09:37:30;;;;;;;13.82;9.75;;;8.20;1.00;;;;;;4997683;28;20050;-72
2022/03/06 09:39:55;;;;;;;14.15;11.05;;;8.20;1.00;;;;;;4997259;28;20499;-72
2022/03/06 09:42:22;;;;;;;12.57;9.55;;;8.30;1.00;;;;;;4997388;28;20038;-72
2022/03/06 09:44:49;;;;;;;13.38;9.48;;;8.20;1.00;;;;;;4997292;28;20526;-72
2022/03/06 09:47:16;;;;;;;12.63;9.40;;;8.30;1.00;;;;;;4997026;28;20040;-72
2022/03/06 09:49:46;;;;;;;11.50;8.60;;;8.20;1.00;;;;;;4996488;28;20051;-72
2022/03/06 09:52:13;;;;;;;14.35;10.00;;;8.40;1.00;;;;;;4996998;28;20030;-72
2022/03/06 09:54:39;;;;;;;11.98;8.43;;;8.50;1.00;;;;;;4996890;28;20042;-72
2022/03/06 09:57:05;;;;;;;11.80;8.82;;;8.30;1.00;;;;;;4997228;28;20045;-71
2022/03/06 09:59:32;;;;;;;12.57;9.45;;;8.10;1.00;;;;;;4996642;28;20044;-72
2022/03/06 10:02:04;;;;;;;12.02;8.30;;;8.20;1.00;;;;;;4996458;28;20030;-72
2022/03/06 10:04:32;;;;;;;11.60;8.93;;;8.20;1.00;;;;;;4996170;28;20049;-72
2022/03/06 10:07:08;;;;;;;15.20;10.70;;;8.40;1.00;;;;;;4996731;28;20046;-72
2022/03/06 10:09:55;;;;;;;13.05;9.30;;;8.30;1.00;;;;;;4996665;28;20046;-71
2022/03/06 10:12:43;;;;;;;14.27;8.88;;;8.40;1.00;;;;;;4996630;28;20088;-71
2022/03/06 10:15:11;;;;;;;10.18;7.97;;;8.60;1.00;;;;;;4996606;28;20077;-72
2022/03/06 10:17:36;;;;;;;12.75;8.60;;;8.60;1.00;;;;;;4996556;28;20038;-72
2022/03/06 10:20:05;;;;;;;11.30;7.88;;;8.60;1.00;;;;;;4995248;28;20043;-72
2022/03/06 10:22:40;;;;;;;11.45;8.13;;;8.80;1.00;;;;;;4996117;28;20034;-72
2022/03/06 10:25:10;;;;;;;10.68;7.18;;;8.80;1.00;;;;;;4996434;28;20575;-72
2022/03/06 10:27:48;;;;;;;8.73;6.20;;;8.90;1.00;;;;;;4996119;28;20049;-71
2022/03/06 10:30:42;;;;;;;7.50;6.18;;;9.10;1.00;;;;;;4996255;28;20042;-72
2022/03/06 10:33:16;;;;;;;8.35;7.05;;;9.20;1.00;;;;;;4995884;28;20070;-72
2022/03/06 10:35:44;;;;;;;10.80;7.00;;;9.40;1.00;;;;;;4995922;28;20061;-72
2022/03/06 10:38:22;;;;;;;8.18;6.35;;;9.30;1.00;;;;;;4996146;28;20053;-72
2022/03/06 10:40:49;;;;;;;7.93;7.13;;;9.20;1.00;;;;;;4996065;28;20142;-72
2022/03/06 10:43:17;;;;;;;9.93;6.82;;;9.30;1.00;;;;;;4995711;28;20185;-72
2022/03/06 10:45:43;;;;;;;8.60;6.63;;;9.10;1.00;;;;;;4995655;28;20049;-72
2022/03/06 10:48:10;;;;;;;10.10;7.40;;;9.00;1.00;;;;;;4995331;28;20057;-72
2022/03/06 10:50:36;;;;;;;10.07;6.85;;;9.20;1.00;;;;;;4996019;28;20058;-72
2022/03/06 10:53:15;;;;;;;9.68;6.80;;;9.40;1.00;;;;;;4995884;28;20054;-72
2022/03/06 10:55:41;;;;;;;12.05;8.43;;;9.20;1.00;;;;;;4996188;28;20503;-72
2022/03/06 10:58:07;;;;;;;11.02;8.48;;;9.50;1.00;;;;;;4995921;28;20046;-72
2022/03/06 11:00:33;;;;;;;12.05;9.55;;;9.50;1.00;;;;;;4995991;28;20034;-71
2022/03/06 11:03:04;;;;;;;10.85;8.18;;;9.50;1.00;;;;;;4995388;28;20048;-72
2022/03/06 11:05:32;;;;;;;9.90;7.35;;;9.70;1.00;;;;;;4995857;28;20089;-71
2022/03/06 11:08:00;;;;;;;10.18;8.10;;;9.50;1.00;;;;;;4995956;28;20082;-71
2022/03/06 11:10:26;;;;;;;8.95;7.40;;;9.50;1.00;;;;;;4995567;28;20046;-72
2022/03/06 11:12:52;;;;;;;10.25;7.72;;;9.70;1.00;;;;;;4995757;28;20393;-72
2022/03/06 11:15:18;;;;;;;11.23;8.23;;;9.80;1.00;;;;;;4995672;28;20042;-72
2022/03/06 11:17:45;;;;;;;9.70;7.93;;;10.10;1.00;;;;;;4995446;28;20034;-72
2022/03/06 11:20:12;;;;;;;9.30;7.30;;;10.00;1.00;;;;;;4995638;28;20038;-72
2022/03/06 11:23:19;;;;;;;9.93;6.80;;;10.00;1.00;;;;;;4995582;28;20073;-72
2022/03/06 11:26:01;;;;;;;8.82;6.88;;;9.80;1.00;;;;;;4974943;28;20050;-72
2022/03/06 11:29:16;;;;;;;11.00;8.48;;;9.70;1.00;;;;;;4995158;28;20065;-72
2022/03/06 11:31:46;;;;;;;14.02;9.20;;;9.60;1.00;;;;;;4930739;28;20120;-72
2022/03/06 11:34:25;;;;;;;9.02;7.68;;;9.70;1.00;;;;;;4995219;28;20034;-72
2022/03/06 11:36:53;;;;;;;7.47;5.90;;;9.40;1.00;;;;;;4995324;28;20070;-72
2022/03/06 11:39:30;;;;;;;11.00;8.15;;;9.30;1.00;;;;;;4995236;28;20088;-72
2022/03/06 11:42:02;;;;;;;11.20;8.05;;;9.40;1.00;;;;;;4995240;28;20073;-72
2022/03/06 11:44:38;;;;;;;8.30;6.65;;;9.40;1.00;;;;;;4995220;28;20160;-72
2022/03/06 11:47:21;;;;;;;9.35;7.10;;;9.50;1.00;;;;;;4994801;28;20482;-72
2022/03/06 11:49:59;;;;;;;8.35;6.60;;;9.60;1.00;;;;;;4994887;28;20058;-72
2022/03/06 11:52:32;;;;;;;9.50;7.43;;;9.80;1.00;;;;;;4994401;28;20038;-71
2022/03/06 11:54:59;;;;;;;11.73;8.52;;;10.00;1.00;;;;;;4994709;28;20041;-72
2022/03/06 11:57:43;;;;;;;10.05;8.38;;;10.00;1.00;;;;;;4994629;28;20034;-72
2022/03/06 12:00:20;;;;;;;16.33;10.88;;;10.10;1.00;;;;;;4994650;28;20046;-71
2022/03/06 12:02:48;;;;;;;12.93;9.48;;;9.80;1.00;;;;;;4994343;28;20034;-72
2022/03/06 12:05:16;;;;;;;10.68;8.23;;;9.80;1.00;;;;;;4994392;28;20034;-72
2022/03/06 12:07:44;;;;;;;9.77;8.30;;;9.90;1.00;;;;;;4994353;28;20038;-72
2022/03/06 12:10:11;;;;;;;13.18;10.23;;;9.80;1.00;;;;;;4994454;28;20493;-72
2022/03/06 12:12:38;;;;;;;13.65;10.32;;;9.70;1.00;;;;;;4994371;28;20038;-72
2022/03/06 12:15:25;;;;;;;15.85;10.88;;;9.40;1.00;;;;;;4994365;28;20041;-72
2022/03/06 12:17:51;;;;;;;15.40;11.95;;;9.30;1.00;;;;;;4994227;28;20046;-72
2022/03/06 12:20:23;;;;;;;13.15;10.18;;;8.90;1.00;;;;;;4994340;28;20146;-72
2022/03/06 12:22:57;;;;;;;14.43;11.68;;;8.80;1.00;;;;;;4994169;28;20046;-72
2022/03/06 12:25:31;;;;;;;20.42;16.02;;;8.60;1.00;;;;;;4992466;28;20070;-72
2022/03/06 12:28:03;;;;;;;16.02;12.82;;;8.60;1.00;;;;;;4994226;28;20042;-72
2022/03/06 12:30:31;;;;;;;16.83;13.05;;;8.70;1.00;;;;;;4994102;28;20255;-72
2022/03/06 12:32:57;;;;;;;19.88;13.90;;;8.80;1.00;;;;;;4994017;28;20046;-72
2022/03/06 12:35:25;;;;;;;17.98;13.57;;;8.70;1.00;;;;;;4993875;28;20048;-71
2022/03/06 12:37:53;;;;;;;18.73;12.73;;;8.90;1.00;;;;;;4994165;28;20120;-72
2022/03/06 12:40:25;;;;;;;20.15;13.52;;;8.90;1.00;;;;;;4993978;28;20049;-72
2022/03/06 12:42:56;;;;;;;18.77;12.90;;;9.00;1.00;;;;;;4993540;28;20045;-71
2022/03/06 12:45:23;;;;;;;19.33;13.35;;;9.10;1.00;;;;;;4994071;28;20129;-72
2022/03/06 12:47:49;;;;;;;15.05;12.20;;;9.20;1.00;;;;;;4993454;28;20274;-72
2022/03/06 12:50:18;;;;;;;16.95;12.60;;;9.30;1.00;;;;;;4993618;28;20030;-72
2022/03/06 12:52:45;;;;;;;15.65;12.95;;;9.30;1.00;;;;;;4993580;28;20085;-72
2022/03/06 12:55:16;;;;;;;17.63;13.32;;;9.40;1.00;;;;;;4993592;28;20042;-72
2022/03/06 12:57:51;;;;;;;19.02;14.20;;;9.40;1.00;;;;;;4993936;28;20046;-71
2022/03/06 13:00:22;;;;;;;17.58;14.15;;;9.30;1.00;;;;;;4993232;28;20077;-72
2022/03/06 13:02:48;;;;;;;;;;;9.30;1.00;;;;;;4993792;28;20038;-72
2022/03/06 13:05:14;;;;;;;18.13;14.00;;;9.40;1.00;;;;;;4993448;28;19914;-72
2022/03/06 13:07:40;;;;;;;16.80;13.20;;;9.50;1.00;;;;;;4993541;28;20061;-72
2022/03/06 13:10:08;;;;;;;17.42;13.18;;;9.40;1.00;;;;;;4993703;28;20031;-72